createdAt,value
2018-09-17T00:02:09.647Z,14.00
2018-09-17T00:04:37.801Z,13.90
2018-09-17T00:07:05.943Z,13.90
2018-09-17T00:09:34.098Z,13.90
2018-09-17T00:12:02.238Z,13.90
2018-09-17T00:14:30.385Z,13.90
2018-09-17T00:16:58.530Z,13.90
2018-09-17T00:19:26.687Z,13.90
2018-09-17T00:21:54.830Z,13.90
2018-09-17T00:24:22.990Z,13.70
2018-09-17T00:26:51.130Z,13.60
2018-09-17T00:29:19.278Z,13.50
2018-09-17T00:31:47.413Z,13.40
2018-09-17T00:34:15.553Z,13.30
2018-09-17T00:36:43.701Z,13.30
2018-09-17T00:39:12.910Z,13.30
2018-09-17T00:41:41.125Z,13.20
2018-09-17T00:44:09.269Z,13.10
2018-09-17T00:46:37.447Z,13.20
2018-09-17T00:49:05.626Z,13.30
2018-09-17T00:51:33.778Z,13.40
2018-09-17T00:54:01.915Z,13.50
2018-09-17T00:56:30.066Z,13.50
2018-09-17T00:58:58.197Z,13.40
2018-09-17T01:01:26.350Z,13.30
2018-09-17T01:03:54.490Z,13.30
2018-09-17T01:06:22.637Z,13.30
2018-09-17T01:08:50.779Z,13.30
2018-09-17T01:11:18.926Z,13.40
2018-09-17T01:13:47.054Z,13.40
2018-09-17T01:16:15.201Z,13.30
2018-09-17T01:18:43.410Z,13.20
2018-09-17T01:21:11.558Z,13.20
2018-09-17T01:23:39.718Z,13.20
2018-09-17T01:26:07.865Z,13.20
2018-09-17T01:28:35.983Z,13.10
2018-09-17T01:31:04.094Z,13.20
2018-09-17T01:33:32.215Z,13.30
2018-09-17T01:36:00.318Z,13.30
2018-09-17T01:38:28.472Z,13.30
2018-09-17T01:40:56.577Z,13.20
2018-09-17T01:43:24.686Z,13.20
2018-09-17T01:45:52.807Z,13.10
2018-09-17T01:48:20.924Z,13.00
2018-09-17T01:50:49.034Z,12.80
2018-09-17T01:53:17.170Z,12.80
2018-09-17T01:55:45.278Z,12.90
2018-09-17T01:58:13.394Z,13.00
2018-09-17T02:00:41.606Z,13.00
2018-09-17T02:03:09.819Z,13.00
2018-09-17T02:05:37.975Z,12.90
2018-09-17T02:08:06.611Z,12.80
2018-09-17T02:10:34.670Z,12.80
2018-09-17T02:13:02.834Z,12.80
2018-09-17T02:15:30.969Z,12.90
2018-09-17T02:17:59.118Z,12.90
2018-09-17T02:20:27.254Z,12.80
2018-09-17T02:22:55.419Z,12.80
2018-09-17T02:25:23.554Z,12.80
2018-09-17T02:27:51.722Z,12.90
2018-09-17T02:30:19.875Z,13.00
2018-09-17T02:32:48.026Z,12.90
2018-09-17T02:35:16.161Z,12.80
2018-09-17T02:37:44.300Z,12.90
2018-09-17T02:40:15.477Z,12.80
2018-09-17T02:42:44.776Z,12.70
2018-09-17T02:45:12.922Z,12.50
2018-09-17T02:47:41.075Z,12.50
2018-09-17T02:50:09.221Z,12.50
2018-09-17T02:52:37.353Z,12.50
2018-09-17T02:55:06.255Z,12.40
2018-09-17T02:57:34.649Z,12.40
2018-09-17T03:00:02.910Z,12.40
2018-09-17T03:02:31.071Z,12.40
2018-09-17T03:04:59.227Z,12.40
2018-09-17T03:07:27.434Z,12.50
2018-09-17T03:09:55.593Z,12.60
2018-09-17T03:12:23.734Z,12.60
2018-09-17T03:14:51.886Z,12.60
2018-09-17T03:17:20.026Z,12.60
2018-09-17T03:19:48.170Z,12.50
2018-09-17T03:22:16.325Z,12.40
2018-09-17T03:24:44.470Z,12.30
2018-09-17T03:27:12.606Z,12.30
2018-09-17T03:29:40.755Z,12.30
2018-09-17T03:32:08.902Z,12.20
2018-09-17T03:34:37.062Z,12.30
2018-09-17T03:37:05.250Z,12.40
2018-09-17T03:39:33.410Z,12.40
2018-09-17T03:42:01.554Z,12.40
2018-09-17T03:44:29.687Z,12.40
2018-09-17T03:46:57.843Z,12.50
2018-09-17T03:49:25.995Z,12.50
2018-09-17T03:51:54.170Z,12.40
2018-09-17T03:54:22.298Z,12.30
2018-09-17T03:56:50.449Z,12.30
2018-09-17T03:59:18.590Z,12.30
2018-09-17T04:01:46.714Z,12.30
2018-09-17T04:04:14.814Z,12.10
2018-09-17T04:06:42.925Z,12.10
2018-09-17T04:09:11.074Z,12.20
2018-09-17T04:11:39.142Z,12.30
2018-09-17T04:14:07.750Z,12.40
2018-09-17T04:16:36.145Z,12.40
2018-09-17T04:19:04.248Z,12.40
2018-09-17T04:21:32.360Z,12.30
2018-09-17T04:24:00.474Z,12.30
2018-09-17T04:26:28.592Z,12.30
2018-09-17T04:28:56.694Z,12.30
2018-09-17T04:31:24.864Z,12.30
2018-09-17T04:33:52.930Z,12.40
2018-09-17T04:36:21.034Z,12.20
2018-09-17T04:38:49.151Z,12.10
2018-09-17T04:41:17.258Z,12.10
2018-09-17T04:43:45.429Z,12.00
2018-09-17T04:46:13.523Z,11.80
2018-09-17T04:48:41.647Z,11.80
2018-09-17T04:51:09.746Z,11.80
2018-09-17T04:53:37.873Z,11.80
2018-09-17T04:56:05.998Z,11.80
2018-09-17T04:58:34.125Z,11.80
2018-09-17T05:01:02.237Z,11.80
2018-09-17T05:03:30.353Z,11.90
2018-09-17T05:05:58.466Z,12.00
2018-09-17T05:08:26.582Z,12.10
2018-09-17T05:10:54.714Z,12.20
2018-09-17T05:13:23.103Z,12.30
2018-09-17T05:15:50.990Z,12.30
2018-09-17T05:18:19.106Z,12.10
2018-09-17T05:20:47.293Z,12.10
2018-09-17T05:23:15.329Z,12.20
2018-09-17T05:25:43.461Z,12.20
2018-09-17T05:28:11.584Z,12.30
2018-09-17T05:30:39.695Z,12.30
2018-09-17T05:33:07.853Z,12.10
2018-09-17T05:35:35.989Z,12.10
2018-09-17T05:38:04.093Z,12.20
2018-09-17T05:40:32.240Z,12.30
2018-09-17T05:43:00.330Z,12.30
2018-09-17T05:45:28.439Z,12.30
2018-09-17T05:47:56.547Z,12.20
2018-09-17T05:50:24.671Z,12.20
2018-09-17T05:52:52.783Z,12.30
2018-09-17T05:55:20.898Z,12.20
2018-09-17T05:57:49.010Z,12.10
2018-09-17T06:00:17.133Z,12.10
2018-09-17T06:02:45.258Z,12.20
2018-09-17T06:05:13.374Z,12.30
2018-09-17T06:07:41.567Z,12.40
2018-09-17T06:10:16.615Z,12.50
2018-09-17T06:12:46.428Z,12.60
2018-09-17T06:15:14.820Z,12.70
2018-09-17T06:17:42.918Z,12.70
2018-09-17T06:20:11.050Z,12.80
2018-09-17T06:22:39.166Z,12.70
2018-09-17T06:25:07.306Z,12.60
2018-09-17T06:27:35.418Z,12.60
2018-09-17T06:30:03.537Z,12.50
2018-09-17T06:32:31.726Z,12.60
2018-09-17T06:34:59.850Z,12.50
2018-09-17T06:37:27.982Z,12.60
2018-09-17T06:39:56.099Z,12.60
2018-09-17T06:42:24.317Z,12.70
2018-09-17T06:44:52.533Z,12.70
2018-09-17T06:47:20.598Z,12.80
2018-09-17T06:49:48.889Z,12.90
2018-09-17T06:52:17.015Z,13.00
2018-09-17T06:54:45.126Z,13.10
2018-09-17T06:57:13.261Z,13.20
2018-09-17T06:59:41.394Z,13.40
2018-09-17T07:02:09.523Z,13.50
2018-09-17T07:04:37.630Z,13.60
2018-09-17T07:07:05.741Z,13.70
2018-09-17T07:09:33.854Z,13.80
2018-09-17T07:12:01.970Z,13.80
2018-09-17T07:14:30.094Z,13.90
2018-09-17T07:16:58.218Z,14.00
2018-09-17T07:19:26.352Z,14.10
2018-09-17T07:21:54.466Z,14.30
2018-09-17T07:24:22.573Z,14.40
2018-09-17T07:26:50.718Z,14.60
2018-09-17T07:29:18.834Z,14.70
2018-09-17T07:31:46.958Z,14.90
2018-09-17T07:34:15.076Z,15.10
2018-09-17T07:36:43.195Z,15.40
2018-09-17T07:39:12.130Z,15.60
2018-09-17T07:41:40.352Z,15.70
2018-09-17T07:44:08.499Z,15.90
2018-09-17T07:46:36.786Z,16.00
2018-09-17T07:49:04.954Z,16.10
2018-09-17T07:51:33.065Z,16.30
2018-09-17T07:54:01.215Z,16.40
2018-09-17T07:56:29.638Z,16.50
2018-09-17T07:58:57.875Z,16.70
2018-09-17T08:01:26.022Z,16.90
2018-09-17T08:03:54.207Z,17.00
2018-09-17T08:06:22.358Z,17.20
2018-09-17T08:08:50.510Z,17.40
2018-09-17T08:11:18.653Z,17.50
2018-09-17T08:13:46.881Z,17.60
2018-09-17T08:16:15.019Z,17.70
2018-09-17T08:18:43.183Z,17.80
2018-09-17T08:21:11.366Z,17.90
2018-09-17T08:23:39.529Z,18.00
2018-09-17T08:26:07.686Z,18.10
2018-09-17T08:28:35.948Z,18.20
2018-09-17T08:31:04.090Z,18.40
2018-09-17T08:33:32.246Z,18.40
2018-09-17T08:36:00.406Z,18.60
2018-09-17T08:38:28.555Z,18.70
2018-09-17T08:40:56.707Z,18.80
2018-09-17T08:43:24.881Z,18.90
2018-09-17T08:45:53.036Z,19.00
2018-09-17T08:48:21.186Z,19.10
2018-09-17T08:50:49.345Z,19.10
2018-09-17T08:53:17.494Z,19.20
2018-09-17T08:55:49.891Z,19.30
2018-09-17T08:58:25.999Z,19.30
2018-09-17T09:00:56.338Z,19.40
2018-09-17T09:04:30.409Z,19.50
2018-09-17T09:07:04.059Z,19.60
2018-09-17T09:09:32.214Z,19.70
2018-09-17T09:12:05.934Z,19.80
2018-09-17T09:14:38.881Z,19.90
2018-09-17T09:17:07.457Z,20.00
2018-09-17T09:19:35.683Z,20.10
2018-09-17T09:22:03.927Z,20.20
2018-09-17T09:24:32.057Z,20.20
2018-09-17T09:27:00.215Z,20.30
2018-09-17T09:29:28.330Z,20.30
2018-09-17T09:31:56.502Z,20.30
2018-09-17T09:34:24.643Z,20.40
2018-09-17T09:36:52.847Z,20.60
2018-09-17T09:39:20.959Z,20.70
2018-09-17T09:41:49.119Z,20.70
2018-09-17T09:44:17.270Z,20.70
2018-09-17T09:46:45.395Z,20.70
2018-09-17T09:49:13.519Z,20.80
2018-09-17T09:51:41.633Z,20.90
2018-09-17T09:54:09.742Z,21.00
2018-09-17T09:56:37.854Z,20.90
2018-09-17T09:59:06.098Z,20.90
2018-09-17T10:01:39.470Z,20.90
2018-09-17T10:04:13.110Z,20.90
2018-09-17T10:06:41.246Z,21.00
2018-09-17T10:09:14.770Z,21.00
2018-09-17T10:11:48.422Z,20.90
2018-09-17T10:14:21.955Z,20.80
2018-09-17T10:16:55.486Z,20.70
2018-09-17T10:19:24.767Z,20.70
2018-09-17T10:21:52.887Z,20.90
2018-09-17T10:24:21.038Z,20.90
2018-09-17T10:26:49.244Z,21.00
2018-09-17T10:29:17.584Z,21.10
2018-09-17T10:31:46.083Z,21.00
2018-09-17T10:34:14.189Z,21.10
2018-09-17T10:36:42.294Z,21.20
2018-09-17T10:39:12.334Z,21.20
2018-09-17T10:41:40.705Z,21.40
2018-09-17T10:44:08.862Z,21.40
2018-09-17T10:46:37.476Z,21.40
2018-09-17T10:49:06.027Z,21.50
2018-09-17T10:51:34.150Z,21.50
2018-09-17T10:54:02.292Z,21.60
2018-09-17T10:56:30.444Z,21.50
2018-09-17T10:58:58.545Z,21.40
2018-09-17T11:01:26.697Z,21.50
2018-09-17T11:03:54.865Z,21.50
2018-09-17T11:06:23.054Z,21.70
2018-09-17T11:08:51.210Z,21.90
2018-09-17T11:11:19.356Z,21.80
2018-09-17T11:13:47.505Z,21.70
2018-09-17T11:16:15.669Z,21.80
2018-09-17T11:18:43.813Z,21.70
2018-09-17T11:21:11.969Z,21.60
2018-09-17T11:23:40.151Z,21.80
2018-09-17T11:26:08.296Z,22.10
2018-09-17T11:28:36.431Z,22.30
2018-09-17T11:31:04.574Z,22.30
2018-09-17T11:33:32.717Z,22.30
2018-09-17T11:36:00.982Z,22.30
2018-09-17T11:38:29.162Z,22.30
2018-09-17T11:40:57.301Z,22.50
2018-09-17T11:43:25.449Z,22.60
2018-09-17T11:45:53.594Z,22.40
2018-09-17T11:48:21.834Z,22.20
2018-09-17T11:50:49.928Z,22.00
2018-09-17T11:53:18.067Z,21.80
2018-09-17T11:55:46.248Z,21.90
2018-09-17T11:58:14.404Z,21.90
2018-09-17T12:00:47.901Z,22.00
2018-09-17T12:03:21.325Z,22.30
2018-09-17T12:05:54.709Z,22.40
2018-09-17T12:08:22.832Z,22.30
2018-09-17T12:10:50.946Z,22.30
2018-09-17T12:13:19.166Z,22.20
2018-09-17T12:15:47.283Z,22.30
2018-09-17T12:18:15.381Z,22.30
2018-09-17T12:20:43.533Z,22.10
2018-09-17T12:23:11.865Z,22.00
2018-09-17T12:25:39.973Z,21.90
2018-09-17T12:28:08.241Z,22.20
2018-09-17T12:30:36.346Z,22.30
2018-09-17T12:33:04.525Z,22.40
2018-09-17T12:35:32.631Z,22.40
2018-09-17T12:38:00.778Z,22.20
2018-09-17T12:40:28.998Z,22.30
2018-09-17T12:42:57.301Z,22.40
2018-09-17T12:45:26.011Z,22.40
2018-09-17T12:47:54.701Z,22.50
2018-09-17T12:50:23.145Z,22.50
2018-09-17T12:52:51.255Z,22.70
2018-09-17T12:55:19.365Z,22.80
2018-09-17T12:57:47.497Z,23.00
2018-09-17T13:00:15.613Z,23.00
2018-09-17T13:02:43.746Z,22.80
2018-09-17T13:05:11.849Z,22.70
2018-09-17T13:07:40.039Z,22.60
2018-09-17T13:10:08.131Z,22.60
2018-09-17T13:12:36.254Z,22.60
2018-09-17T13:15:04.575Z,22.60
2018-09-17T13:17:32.716Z,22.70
2018-09-17T13:20:00.880Z,22.70
2018-09-17T13:22:28.942Z,22.70
2018-09-17T13:24:57.121Z,22.70
2018-09-17T13:27:25.162Z,22.70
2018-09-17T13:29:53.312Z,22.60
2018-09-17T13:32:21.407Z,22.50
2018-09-17T13:34:49.522Z,22.50
2018-09-17T13:37:17.784Z,22.50
2018-09-17T13:39:45.881Z,22.40
2018-09-17T13:42:13.989Z,22.40
2018-09-17T13:44:42.253Z,22.40
2018-09-17T13:47:10.241Z,22.40
2018-09-17T13:49:38.348Z,22.50
2018-09-17T13:52:06.461Z,22.40
2018-09-17T13:54:34.578Z,22.30
2018-09-17T13:57:02.692Z,22.30
2018-09-17T13:59:30.817Z,22.30
2018-09-17T14:01:58.989Z,22.10
2018-09-17T14:04:27.194Z,22.20
2018-09-17T14:06:55.289Z,22.40
2018-09-17T14:09:23.459Z,22.50
2018-09-17T14:11:51.606Z,22.50
2018-09-17T14:14:19.798Z,22.60
2018-09-17T14:16:47.993Z,22.60
2018-09-17T14:19:16.122Z,22.50
2018-09-17T14:21:44.287Z,22.30
2018-09-17T14:24:12.434Z,22.40
2018-09-17T14:26:40.583Z,22.40
2018-09-17T14:29:08.751Z,22.40
2018-09-17T14:32:43.869Z,22.50
2018-09-17T14:35:12.003Z,22.50
2018-09-17T14:37:40.170Z,22.70
2018-09-17T14:40:08.321Z,22.80
2018-09-17T14:42:36.485Z,22.70
2018-09-17T14:45:04.633Z,22.50
2018-09-17T14:47:32.860Z,22.30
2018-09-17T14:50:01.077Z,22.20
2018-09-17T14:52:29.386Z,22.10
2018-09-17T14:54:57.454Z,22.00
2018-09-17T14:57:25.613Z,21.80
2018-09-17T14:59:53.790Z,21.70
2018-09-17T15:02:21.950Z,21.80
2018-09-17T15:04:50.095Z,22.00
2018-09-17T15:07:18.238Z,22.00
2018-09-17T15:09:46.406Z,21.90
2018-09-17T15:12:14.556Z,21.90
2018-09-17T15:14:42.786Z,22.10
2018-09-17T15:17:10.882Z,22.40
2018-09-17T15:19:39.034Z,22.30
2018-09-17T15:22:07.274Z,22.10
2018-09-17T15:24:35.366Z,22.00
2018-09-17T15:27:03.522Z,21.90
2018-09-17T15:29:31.723Z,21.80
2018-09-17T15:32:00.012Z,21.80
2018-09-17T15:34:28.154Z,21.70
2018-09-17T15:36:56.315Z,21.70
2018-09-17T15:39:24.579Z,21.60
2018-09-17T15:41:52.665Z,21.60
2018-09-17T15:44:20.992Z,21.50
2018-09-17T15:46:49.134Z,21.40
2018-09-17T15:49:17.210Z,21.40
2018-09-17T15:51:45.471Z,21.40
2018-09-17T15:54:13.630Z,21.30
2018-09-17T15:56:41.749Z,21.20
2018-09-17T15:59:09.893Z,21.20
2018-09-17T16:01:38.013Z,21.10
2018-09-17T16:04:06.126Z,21.10
2018-09-17T16:06:34.231Z,21.10
2018-09-17T16:09:02.366Z,21.10
2018-09-17T16:11:30.481Z,21.00
2018-09-17T16:13:58.624Z,21.00
2018-09-17T16:16:26.710Z,21.10
2018-09-17T16:18:54.830Z,21.00
2018-09-17T16:21:22.945Z,21.00
2018-09-17T16:23:51.167Z,20.90
2018-09-17T16:26:19.266Z,20.90
2018-09-17T16:28:47.385Z,20.80
2018-09-17T16:31:15.541Z,20.80
2018-09-17T16:33:43.693Z,20.70
2018-09-17T16:36:11.853Z,20.70
2018-09-17T16:38:39.942Z,20.70
2018-09-17T16:41:08.054Z,20.70
2018-09-17T16:43:36.169Z,20.70
2018-09-17T16:46:04.324Z,20.70
2018-09-17T16:48:32.442Z,20.70
2018-09-17T16:51:00.801Z,20.70
2018-09-17T16:53:29.093Z,20.70
2018-09-17T16:55:57.049Z,20.70
2018-09-17T16:58:25.228Z,20.70
2018-09-17T17:00:53.299Z,20.60
2018-09-17T17:03:21.402Z,20.60
2018-09-17T17:05:49.589Z,20.60
2018-09-17T17:08:17.716Z,20.60
2018-09-17T17:10:45.840Z,20.60
2018-09-17T17:13:13.940Z,20.60
2018-09-17T17:15:46.244Z,20.60
2018-09-17T17:18:14.775Z,20.60
2018-09-17T17:20:42.890Z,20.60
2018-09-17T17:23:11.038Z,20.60
2018-09-17T17:25:39.166Z,20.60
2018-09-17T17:28:07.374Z,20.60
2018-09-17T17:30:35.496Z,20.50
2018-09-17T17:33:03.731Z,20.40
2018-09-17T17:35:31.826Z,20.40
2018-09-17T17:37:59.947Z,20.30
2018-09-17T17:40:28.136Z,20.30
2018-09-17T17:42:56.174Z,20.30
2018-09-17T17:45:24.286Z,20.20
2018-09-17T17:47:52.398Z,20.20
2018-09-17T17:50:20.530Z,20.20
2018-09-17T17:52:48.906Z,20.10
2018-09-17T17:55:17.123Z,20.10
2018-09-17T17:57:45.302Z,20.00
2018-09-17T18:00:13.453Z,20.00
2018-09-17T18:02:41.657Z,19.90
2018-09-17T18:05:09.781Z,19.90
2018-09-17T18:07:38.011Z,19.80
2018-09-17T18:10:06.357Z,19.80
2018-09-17T18:12:34.530Z,19.70
2018-09-17T18:15:02.773Z,19.70
2018-09-17T18:17:30.847Z,19.70
2018-09-17T18:19:59.001Z,19.60
2018-09-17T18:22:27.153Z,19.50
2018-09-17T18:24:55.303Z,19.50
2018-09-17T18:27:23.752Z,19.50
2018-09-17T18:29:51.896Z,19.50
2018-09-17T18:32:20.118Z,19.40
2018-09-17T18:34:48.259Z,19.30
2018-09-17T18:37:16.413Z,19.30
2018-09-17T18:39:44.787Z,19.20
2018-09-17T18:42:12.769Z,19.20
2018-09-17T18:44:40.942Z,19.20
2018-09-17T18:47:09.058Z,19.10
2018-09-17T18:49:37.390Z,19.00
2018-09-17T18:52:05.549Z,19.00
2018-09-17T18:54:33.706Z,19.00
2018-09-17T18:57:01.991Z,19.00
2018-09-17T18:59:30.134Z,19.00
2018-09-17T19:01:58.355Z,19.00
2018-09-17T19:04:26.506Z,18.80
2018-09-17T19:06:54.662Z,18.80
2018-09-17T19:09:27.111Z,18.70
2018-09-17T19:11:55.319Z,18.70
2018-09-17T19:14:28.942Z,18.70
2018-09-17T19:16:57.501Z,18.60
2018-09-17T19:19:25.982Z,18.70
2018-09-17T19:21:59.863Z,18.50
2018-09-17T19:24:27.870Z,18.50
2018-09-17T19:26:56.050Z,18.40
2018-09-17T19:29:24.189Z,18.40
2018-09-17T19:31:52.372Z,18.40
2018-09-17T19:34:20.528Z,18.30
2018-09-17T19:36:48.657Z,18.30
2018-09-17T19:39:22.290Z,18.20
2018-09-17T19:41:50.496Z,18.20
2018-09-17T19:44:18.661Z,18.20
2018-09-17T19:46:46.771Z,18.20
2018-09-17T19:49:14.926Z,18.10
2018-09-17T19:51:48.610Z,18.00
2018-09-17T19:54:16.822Z,18.00
2018-09-17T19:56:44.954Z,18.00
2018-09-17T19:59:18.546Z,17.90
2018-09-17T20:01:46.844Z,17.90
2018-09-17T20:04:20.310Z,17.80
2018-09-17T20:06:48.470Z,17.70
2018-09-17T20:09:16.685Z,17.70
2018-09-17T20:11:44.878Z,17.70
2018-09-17T20:14:13.049Z,17.60
2018-09-17T20:16:41.291Z,17.50
2018-09-17T20:19:09.425Z,17.50
2018-09-17T20:21:38.496Z,17.40
2018-09-17T20:24:12.304Z,17.40
2018-09-17T20:26:41.564Z,17.30
2018-09-17T20:29:09.722Z,17.30
2018-09-17T20:31:38.639Z,17.30
2018-09-17T20:34:06.799Z,17.30
2018-09-17T20:36:34.963Z,17.30
2018-09-17T20:39:03.595Z,17.20
2018-09-17T20:41:31.813Z,17.20
2018-09-17T20:43:59.938Z,17.20
2018-09-17T20:46:28.074Z,17.10
2018-09-17T20:48:56.336Z,17.30
2018-09-17T20:51:24.512Z,17.30
2018-09-17T20:53:52.693Z,17.20
2018-09-17T20:56:20.862Z,17.20
2018-09-17T20:58:49.010Z,17.00
2018-09-17T21:01:17.227Z,17.10
2018-09-17T21:03:45.418Z,17.00
2018-09-17T21:06:13.557Z,17.00
2018-09-17T21:08:41.702Z,16.90
2018-09-17T21:11:09.799Z,17.00
2018-09-17T21:13:37.927Z,16.90
2018-09-17T21:16:06.057Z,16.90
2018-09-17T21:18:34.170Z,16.80
2018-09-17T21:21:02.274Z,16.70
2018-09-17T21:23:30.394Z,16.60
2018-09-17T21:25:58.486Z,16.60
2018-09-17T21:28:26.631Z,16.60
2018-09-17T21:30:54.751Z,16.50
2018-09-17T21:33:22.858Z,16.50
2018-09-17T21:35:50.966Z,16.50
2018-09-17T21:38:19.074Z,16.40
2018-09-17T21:40:47.227Z,16.40
2018-09-17T21:43:15.362Z,16.40
2018-09-17T21:45:43.445Z,16.40
2018-09-17T21:48:11.556Z,16.40
2018-09-17T21:50:39.657Z,16.40
2018-09-17T21:53:07.854Z,16.30
2018-09-17T21:55:35.964Z,16.30
2018-09-17T21:58:04.091Z,16.30
2018-09-17T22:00:37.634Z,16.30
2018-09-17T22:03:05.833Z,16.30
2018-09-17T22:05:33.953Z,16.20
2018-09-17T22:08:02.057Z,16.30
2018-09-17T22:10:30.170Z,16.20
2018-09-17T22:12:58.274Z,16.20
2018-09-17T22:15:26.411Z,16.20
2018-09-17T22:17:54.527Z,16.20
2018-09-17T22:20:22.650Z,16.30
2018-09-17T22:22:50.758Z,16.30
2018-09-17T22:25:18.897Z,16.20
2018-09-17T22:27:47.027Z,16.20
2018-09-17T22:30:15.162Z,16.10
2018-09-17T22:32:43.255Z,16.10
2018-09-17T22:35:11.446Z,16.10
2018-09-17T22:37:39.501Z,16.00
2018-09-17T22:40:07.633Z,16.00
2018-09-17T22:42:35.734Z,15.90
2018-09-17T22:45:03.846Z,15.90
2018-09-17T22:47:31.957Z,16.00
2018-09-17T22:50:00.074Z,15.90
2018-09-17T22:52:28.186Z,15.90
2018-09-17T22:54:56.363Z,15.90
2018-09-17T22:57:24.466Z,15.80
2018-09-17T22:59:52.593Z,15.80
2018-09-17T23:02:20.793Z,15.80
2018-09-17T23:04:48.922Z,15.80
2018-09-17T23:07:17.090Z,15.70
2018-09-17T23:09:45.250Z,15.80
2018-09-17T23:12:13.478Z,15.80
2018-09-17T23:14:41.683Z,15.80
2018-09-17T23:17:09.831Z,15.80
2018-09-17T23:19:37.981Z,15.80
2018-09-17T23:22:06.312Z,15.80
2018-09-17T23:24:34.454Z,15.80
2018-09-17T23:27:02.606Z,15.70
2018-09-17T23:29:30.742Z,15.70
2018-09-17T23:31:58.914Z,15.70
2018-09-17T23:34:27.070Z,15.60
2018-09-17T23:36:55.243Z,15.50
2018-09-17T23:39:23.361Z,15.50
2018-09-17T23:41:51.510Z,15.50
2018-09-17T23:44:19.650Z,15.50
2018-09-17T23:46:47.807Z,15.50
2018-09-17T23:49:15.950Z,15.60
2018-09-17T23:51:44.085Z,15.60
2018-09-17T23:54:12.249Z,15.50
2018-09-17T23:56:40.382Z,15.50
2018-09-17T23:59:08.596Z,15.50
